Deerfield, Ohio
Current Conditions -  °F | °C
As of 8:41 PM on Tuesday 25 Nov 2014 (Local Time) from KPOV Reporting Station
Overcast Overcast  
Wind Chill: 26°   Ceiling: 1700
Heat Index: 33°   Visibility: 10mi
Dew Point: 26°   Wind: 7mph
Humidity: 75%   Direction: 310°NW
Pressure: 30.16"   Gusts: NA
Location:  41.02°N, 81.05°W
Report Text: KPOV 260141Z AUTO 31006KT 10SM BKN017 OVC023 00/M04 A3016 RMK AO2 T00031036
Loading
Personal Weather Stations






























Interactive Weather Map New forecast layout! Learn more

10-Day Weather Forecast

Advertisements
Track Severe Weather on mobile